sensor_id;sensor_type;location;lat;lon;timestamp;P1;durP1;ratioP1;P2;durP2;ratioP2
55655;SDS011;41530;52.382;5.270;2023-03-29T00:01:38;1.27;;;0.80;;
55655;SDS011;41530;52.382;5.270;2023-03-29T00:04:07;1.67;;;0.90;;
55655;SDS011;41530;52.382;5.270;2023-03-29T00:06:35;2.40;;;0.80;;
55655;SDS011;41530;52.382;5.270;2023-03-29T00:09:03;1.20;;;0.60;;
55655;SDS011;41530;52.382;5.270;2023-03-29T00:11:31;1.25;;;0.80;;
55655;SDS011;41530;52.382;5.270;2023-03-29T00:13:58;1.83;;;1.10;;
55655;SDS011;41530;52.382;5.270;2023-03-29T00:16:24;1.48;;;0.70;;
55655;SDS011;41530;52.382;5.270;2023-03-29T00:18:51;2.17;;;0.70;;
55655;SDS011;41530;52.382;5.270;2023-03-29T00:21:17;2.78;;;0.88;;
55655;SDS011;41530;52.382;5.270;2023-03-29T00:23:44;1.38;;;0.73;;
55655;SDS011;41530;52.382;5.270;2023-03-29T00:26:11;1.20;;;0.60;;
55655;SDS011;41530;52.382;5.270;2023-03-29T00:28:37;2.30;;;0.70;;
55655;SDS011;41530;52.382;5.270;2023-03-29T00:31:11;3.10;;;0.63;;
55655;SDS011;41530;52.382;5.270;2023-03-29T00:33:39;1.95;;;1.00;;
55655;SDS011;41530;52.382;5.270;2023-03-29T00:36:07;3.92;;;0.80;;
55655;SDS011;41530;52.382;5.270;2023-03-29T00:38:36;1.17;;;0.70;;
55655;SDS011;41530;52.382;5.270;2023-03-29T00:41:02;1.10;;;0.57;;
55655;SDS011;41530;52.382;5.270;2023-03-29T00:43:50;1.08;;;0.90;;
55655;SDS011;41530;52.382;5.270;2023-03-29T00:46:22;1.77;;;0.73;;
55655;SDS011;41530;52.382;5.270;2023-03-29T00:48:51;2.25;;;0.85;;
55655;SDS011;41530;52.382;5.270;2023-03-29T00:51:22;3.13;;;0.75;;
55655;SDS011;41530;52.382;5.270;2023-03-29T00:53:53;1.27;;;0.70;;
55655;SDS011;41530;52.382;5.270;2023-03-29T00:56:28;1.10;;;0.75;;
55655;SDS011;41530;52.382;5.270;2023-03-29T00:59:07;1.67;;;0.93;;
55655;SDS011;41530;52.382;5.270;2023-03-29T01:01:46;1.90;;;0.77;;
55655;SDS011;41530;52.382;5.270;2023-03-29T01:09:44;1.10;;;0.70;;
55655;SDS011;41530;52.382;5.270;2023-03-29T01:12:18;1.05;;;0.70;;
55655;SDS011;41530;52.382;5.270;2023-03-29T01:14:49;1.83;;;1.10;;
55655;SDS011;41530;52.382;5.270;2023-03-29T01:17:21;2.40;;;0.77;;
55655;SDS011;41530;52.382;5.270;2023-03-29T01:19:55;1.63;;;0.68;;
55655;SDS011;41530;52.382;5.270;2023-03-29T01:23:02;0.98;;;0.52;;
55655;SDS011;41530;52.382;5.270;2023-03-29T01:26:13;1.95;;;0.70;;
55655;SDS011;41530;52.382;5.270;2023-03-29T01:28:51;1.75;;;0.90;;
55655;SDS011;41530;52.382;5.270;2023-03-29T01:31:27;1.23;;;0.70;;
55655;SDS011;41530;52.382;5.270;2023-03-29T01:33:59;1.77;;;0.80;;
55655;SDS011;41530;52.382;5.270;2023-03-29T01:36:34;2.22;;;0.88;;
55655;SDS011;41530;52.382;5.270;2023-03-29T01:39:16;1.45;;;0.82;;
55655;SDS011;41530;52.382;5.270;2023-03-29T01:51:11;2.47;;;1.25;;
55655;SDS011;41530;52.382;5.270;2023-03-29T01:55:56;2.15;;;0.90;;
55655;SDS011;41530;52.382;5.270;2023-03-29T01:58:28;1.65;;;0.85;;
55655;SDS011;41530;52.382;5.270;2023-03-29T02:00:59;0.80;;;0.80;;
55655;SDS011;41530;52.382;5.270;2023-03-29T02:03:31;3.90;;;0.82;;
55655;SDS011;41530;52.382;5.270;2023-03-29T02:05:59;2.83;;;0.98;;
55655;SDS011;41530;52.382;5.270;2023-03-29T02:08:28;1.58;;;0.98;;
55655;SDS011;41530;52.382;5.270;2023-03-29T02:10:56;2.60;;;1.00;;
55655;SDS011;41530;52.382;5.270;2023-03-29T02:13:23;4.13;;;1.10;;
55655;SDS011;41530;52.382;5.270;2023-03-29T02:15:49;3.58;;;1.10;;
55655;SDS011;41530;52.382;5.270;2023-03-29T02:18:16;1.98;;;0.95;;
55655;SDS011;41530;52.382;5.270;2023-03-29T02:20:45;3.20;;;1.05;;
55655;SDS011;41530;52.382;5.270;2023-03-29T02:25:46;3.92;;;1.20;;
55655;SDS011;41530;52.382;5.270;2023-03-29T02:28:16;1.67;;;0.95;;
55655;SDS011;41530;52.382;5.270;2023-03-29T02:30:45;1.52;;;1.05;;
55655;SDS011;41530;52.382;5.270;2023-03-29T02:33:17;1.48;;;1.00;;
55655;SDS011;41530;52.382;5.270;2023-03-29T02:35:51;3.70;;;1.30;;
55655;SDS011;41530;52.382;5.270;2023-03-29T02:38:22;2.35;;;1.27;;
55655;SDS011;41530;52.382;5.270;2023-03-29T02:40:53;2.33;;;1.15;;
55655;SDS011;41530;52.382;5.270;2023-03-29T02:43:22;3.72;;;1.08;;
55655;SDS011;41530;52.382;5.270;2023-03-29T02:45:51;2.17;;;1.20;;
55655;SDS011;41530;52.382;5.270;2023-03-29T02:48:19;4.43;;;1.33;;
55655;SDS011;41530;52.382;5.270;2023-03-29T02:50:49;1.65;;;1.20;;
55655;SDS011;41530;52.382;5.270;2023-03-29T02:53:22;2.45;;;0.95;;
55655;SDS011;41530;52.382;5.270;2023-03-29T02:55:54;2.85;;;1.10;;
55655;SDS011;41530;52.382;5.270;2023-03-29T02:58:21;2.30;;;1.15;;
55655;SDS011;41530;52.382;5.270;2023-03-29T03:00:51;2.15;;;1.30;;
55655;SDS011;41530;52.382;5.270;2023-03-29T03:03:18;1.45;;;1.00;;
55655;SDS011;41530;52.382;5.270;2023-03-29T03:05:46;3.40;;;1.40;;
55655;SDS011;41530;52.382;5.270;2023-03-29T03:08:12;2.22;;;1.00;;
55655;SDS011;41530;52.382;5.270;2023-03-29T03:10:39;1.67;;;1.10;;
55655;SDS011;41530;52.382;5.270;2023-03-29T03:13:06;2.65;;;1.10;;
55655;SDS011;41530;52.382;5.270;2023-03-29T03:15:33;3.95;;;1.00;;
55655;SDS011;41530;52.382;5.270;2023-03-29T03:18:01;2.75;;;1.23;;
55655;SDS011;41530;52.382;5.270;2023-03-29T03:20:29;3.05;;;1.35;;
55655;SDS011;41530;52.382;5.270;2023-03-29T03:22:56;1.48;;;1.13;;
55655;SDS011;41530;52.382;5.270;2023-03-29T03:25:23;3.80;;;1.20;;
55655;SDS011;41530;52.382;5.270;2023-03-29T03:27:50;2.30;;;1.05;;
55655;SDS011;41530;52.382;5.270;2023-03-29T03:30:16;1.85;;;1.08;;
55655;SDS011;41530;52.382;5.270;2023-03-29T03:32:44;2.10;;;1.00;;
55655;SDS011;41530;52.382;5.270;2023-03-29T03:35:10;1.58;;;1.13;;
55655;SDS011;41530;52.382;5.270;2023-03-29T03:37:37;2.92;;;1.38;;
55655;SDS011;41530;52.382;5.270;2023-03-29T03:40:05;1.67;;;1.00;;
55655;SDS011;41530;52.382;5.270;2023-03-29T03:42:37;2.95;;;1.10;;
55655;SDS011;41530;52.382;5.270;2023-03-29T03:45:05;3.30;;;1.20;;
55655;SDS011;41530;52.382;5.270;2023-03-29T03:47:34;3.90;;;1.13;;
55655;SDS011;41530;52.382;5.270;2023-03-29T03:50:03;2.45;;;0.98;;
55655;SDS011;41530;52.382;5.270;2023-03-29T03:52:31;1.42;;;1.00;;
55655;SDS011;41530;52.382;5.270;2023-03-29T03:54:58;1.52;;;0.90;;
55655;SDS011;41530;52.382;5.270;2023-03-29T03:57:24;6.13;;;1.13;;
55655;SDS011;41530;52.382;5.270;2023-03-29T03:59:51;3.47;;;1.13;;
55655;SDS011;41530;52.382;5.270;2023-03-29T04:02:18;3.05;;;1.25;;
55655;SDS011;41530;52.382;5.270;2023-03-29T04:04:45;1.85;;;1.10;;
55655;SDS011;41530;52.382;5.270;2023-03-29T04:07:12;2.65;;;1.08;;
55655;SDS011;41530;52.382;5.270;2023-03-29T04:09:39;2.25;;;0.88;;
55655;SDS011;41530;52.382;5.270;2023-03-29T04:12:06;2.97;;;1.13;;
55655;SDS011;41530;52.382;5.270;2023-03-29T04:14:32;2.45;;;1.30;;
55655;SDS011;41530;52.382;5.270;2023-03-29T04:16:59;1.88;;;1.10;;
55655;SDS011;41530;52.382;5.270;2023-03-29T04:19:26;1.55;;;1.05;;
55655;SDS011;41530;52.382;5.270;2023-03-29T04:21:53;2.85;;;1.10;;
55655;SDS011;41530;52.382;5.270;2023-03-29T04:24:19;2.33;;;1.25;;
55655;SDS011;41530;52.382;5.270;2023-03-29T04:26:48;2.42;;;0.98;;
55655;SDS011;41530;52.382;5.270;2023-03-29T04:29:14;2.45;;;1.20;;
55655;SDS011;41530;52.382;5.270;2023-03-29T04:31:41;2.40;;;1.10;;
55655;SDS011;41530;52.382;5.270;2023-03-29T04:34:07;3.65;;;1.20;;
55655;SDS011;41530;52.382;5.270;2023-03-29T04:36:34;3.72;;;1.23;;
55655;SDS011;41530;52.382;5.270;2023-03-29T04:39:01;2.17;;;1.00;;
55655;SDS011;41530;52.382;5.270;2023-03-29T04:41:29;2.30;;;1.10;;
55655;SDS011;41530;52.382;5.270;2023-03-29T04:43:57;2.83;;;1.10;;
55655;SDS011;41530;52.382;5.270;2023-03-29T04:46:24;2.30;;;1.15;;
55655;SDS011;41530;52.382;5.270;2023-03-29T04:48:52;1.95;;;1.02;;
55655;SDS011;41530;52.382;5.270;2023-03-29T04:51:19;1.25;;;1.10;;
55655;SDS011;41530;52.382;5.270;2023-03-29T04:53:48;2.67;;;1.13;;
55655;SDS011;41530;52.382;5.270;2023-03-29T04:56:17;2.10;;;1.13;;
55655;SDS011;41530;52.382;5.270;2023-03-29T04:58:44;2.00;;;1.20;;
55655;SDS011;41530;52.382;5.270;2023-03-29T05:01:11;1.00;;;0.90;;
55655;SDS011;41530;52.382;5.270;2023-03-29T05:03:37;2.03;;;0.95;;
55655;SDS011;41530;52.382;5.270;2023-03-29T05:06:05;2.75;;;0.95;;
55655;SDS011;41530;52.382;5.270;2023-03-29T05:08:37;1.65;;;1.15;;
55655;SDS011;41530;52.382;5.270;2023-03-29T05:11:05;3.40;;;0.95;;
55655;SDS011;41530;52.382;5.270;2023-03-29T05:13:33;2.95;;;1.02;;
55655;SDS011;41530;52.382;5.270;2023-03-29T05:16:00;2.10;;;1.10;;
55655;SDS011;41530;52.382;5.270;2023-03-29T05:18:28;2.72;;;1.00;;
55655;SDS011;41530;52.382;5.270;2023-03-29T05:20:55;2.88;;;1.05;;
55655;SDS011;41530;52.382;5.270;2023-03-29T05:23:23;1.63;;;1.00;;
55655;SDS011;41530;52.382;5.270;2023-03-29T05:25:51;1.35;;;1.00;;
55655;SDS011;41530;52.382;5.270;2023-03-29T05:28:21;2.20;;;0.93;;
55655;SDS011;41530;52.382;5.270;2023-03-29T05:30:57;1.77;;;1.00;;
55655;SDS011;41530;52.382;5.270;2023-03-29T05:33:26;2.55;;;0.95;;
55655;SDS011;41530;52.382;5.270;2023-03-29T05:36:03;1.00;;;0.70;;
55655;SDS011;41530;52.382;5.270;2023-03-29T05:38:31;2.42;;;1.10;;
55655;SDS011;41530;52.382;5.270;2023-03-29T05:40:58;0.93;;;0.82;;
55655;SDS011;41530;52.382;5.270;2023-03-29T05:43:26;1.40;;;0.90;;
55655;SDS011;41530;52.382;5.270;2023-03-29T05:45:53;1.73;;;0.80;;
55655;SDS011;41530;52.382;5.270;2023-03-29T05:48:21;1.95;;;0.75;;
55655;SDS011;41530;52.382;5.270;2023-03-29T05:50:49;1.73;;;0.88;;
55655;SDS011;41530;52.382;5.270;2023-03-29T05:53:19;3.92;;;0.98;;
55655;SDS011;41530;52.382;5.270;2023-03-29T05:55:47;2.40;;;0.95;;
55655;SDS011;41530;52.382;5.270;2023-03-29T05:58:14;1.73;;;0.90;;
55655;SDS011;41530;52.382;5.270;2023-03-29T06:00:43;1.33;;;0.85;;
55655;SDS011;41530;52.382;5.270;2023-03-29T06:03:13;6.10;;;0.93;;
55655;SDS011;41530;52.382;5.270;2023-03-29T06:05:49;3.22;;;0.90;;
55655;SDS011;41530;52.382;5.270;2023-03-29T06:08:22;3.10;;;1.17;;
55655;SDS011;41530;52.382;5.270;2023-03-29T06:10:48;1.48;;;0.90;;
55655;SDS011;41530;52.382;5.270;2023-03-29T06:13:15;1.65;;;0.82;;
55655;SDS011;41530;52.382;5.270;2023-03-29T06:15:42;1.73;;;0.70;;
55655;SDS011;41530;52.382;5.270;2023-03-29T06:18:09;1.05;;;0.70;;
55655;SDS011;41530;52.382;5.270;2023-03-29T06:20:36;1.88;;;0.90;;
55655;SDS011;41530;52.382;5.270;2023-03-29T06:23:02;2.08;;;0.88;;
55655;SDS011;41530;52.382;5.270;2023-03-29T06:25:29;0.75;;;0.65;;
55655;SDS011;41530;52.382;5.270;2023-03-29T06:27:55;2.75;;;0.95;;
55655;SDS011;41530;52.382;5.270;2023-03-29T06:30:22;1.13;;;0.77;;
55655;SDS011;41530;52.382;5.270;2023-03-29T06:32:49;1.33;;;0.63;;
55655;SDS011;41530;52.382;5.270;2023-03-29T06:35:15;1.30;;;0.88;;
55655;SDS011;41530;52.382;5.270;2023-03-29T06:37:43;2.03;;;0.70;;
55655;SDS011;41530;52.382;5.270;2023-03-29T06:40:18;1.77;;;0.90;;
55655;SDS011;41530;52.382;5.270;2023-03-29T06:42:46;3.72;;;0.88;;
55655;SDS011;41530;52.382;5.270;2023-03-29T06:45:13;1.45;;;0.80;;
55655;SDS011;41530;52.382;5.270;2023-03-29T06:47:41;1.00;;;0.90;;
55655;SDS011;41530;52.382;5.270;2023-03-29T06:50:08;2.08;;;0.85;;
55655;SDS011;41530;52.382;5.270;2023-03-29T06:52:35;1.15;;;0.70;;
55655;SDS011;41530;52.382;5.270;2023-03-29T06:55:01;0.70;;;0.60;;
55655;SDS011;41530;52.382;5.270;2023-03-29T06:57:32;1.67;;;1.00;;
55655;SDS011;41530;52.382;5.270;2023-03-29T06:59:59;1.63;;;1.00;;
55655;SDS011;41530;52.382;5.270;2023-03-29T07:02:26;2.10;;;1.00;;
55655;SDS011;41530;52.382;5.270;2023-03-29T07:04:54;2.55;;;1.20;;
55655;SDS011;41530;52.382;5.270;2023-03-29T07:07:21;2.55;;;1.13;;
55655;SDS011;41530;52.382;5.270;2023-03-29T07:09:49;3.72;;;1.33;;
55655;SDS011;41530;52.382;5.270;2023-03-29T07:12:22;2.47;;;1.17;;
55655;SDS011;41530;52.382;5.270;2023-03-29T07:14:48;2.75;;;1.30;;
55655;SDS011;41530;52.382;5.270;2023-03-29T07:17:15;3.30;;;1.25;;
55655;SDS011;41530;52.382;5.270;2023-03-29T07:19:42;3.63;;;1.13;;
55655;SDS011;41530;52.382;5.270;2023-03-29T07:22:09;4.60;;;1.35;;
55655;SDS011;41530;52.382;5.270;2023-03-29T07:24:36;2.50;;;1.00;;
55655;SDS011;41530;52.382;5.270;2023-03-29T07:27:03;2.88;;;1.10;;
55655;SDS011;41530;52.382;5.270;2023-03-29T07:29:30;2.20;;;1.08;;
55655;SDS011;41530;52.382;5.270;2023-03-29T07:31:57;3.83;;;1.23;;
55655;SDS011;41530;52.382;5.270;2023-03-29T07:34:24;2.92;;;1.73;;
55655;SDS011;41530;52.382;5.270;2023-03-29T07:36:50;4.22;;;1.88;;
55655;SDS011;41530;52.382;5.270;2023-03-29T07:39:17;2.75;;;1.50;;
55655;SDS011;41530;52.382;5.270;2023-03-29T07:41:44;2.42;;;1.52;;
55655;SDS011;41530;52.382;5.270;2023-03-29T07:44:11;3.22;;;1.50;;
55655;SDS011;41530;52.382;5.270;2023-03-29T07:46:37;4.07;;;1.40;;
55655;SDS011;41530;52.382;5.270;2023-03-29T07:49:04;3.72;;;1.60;;
55655;SDS011;41530;52.382;5.270;2023-03-29T07:51:32;2.78;;;1.73;;
55655;SDS011;41530;52.382;5.270;2023-03-29T07:53:59;3.75;;;2.17;;
55655;SDS011;41530;52.382;5.270;2023-03-29T07:56:25;4.28;;;1.80;;
55655;SDS011;41530;52.382;5.270;2023-03-29T07:58:52;3.00;;;1.75;;
55655;SDS011;41530;52.382;5.270;2023-03-29T08:01:19;3.67;;;1.83;;
55655;SDS011;41530;52.382;5.270;2023-03-29T08:03:45;2.83;;;1.58;;
55655;SDS011;41530;52.382;5.270;2023-03-29T08:06:13;2.75;;;1.60;;
55655;SDS011;41530;52.382;5.270;2023-03-29T08:08:41;3.28;;;1.55;;
55655;SDS011;41530;52.382;5.270;2023-03-29T08:11:07;5.25;;;1.30;;
55655;SDS011;41530;52.382;5.270;2023-03-29T08:13:35;2.38;;;1.20;;
55655;SDS011;41530;52.382;5.270;2023-03-29T08:16:02;1.95;;;1.10;;
55655;SDS011;41530;52.382;5.270;2023-03-29T08:18:29;1.60;;;1.30;;
55655;SDS011;41530;52.382;5.270;2023-03-29T08:20:59;3.67;;;1.38;;
55655;SDS011;41530;52.382;5.270;2023-03-29T08:23:26;5.70;;;1.25;;
55655;SDS011;41530;52.382;5.270;2023-03-29T08:25:53;1.92;;;1.02;;
55655;SDS011;41530;52.382;5.270;2023-03-29T08:28:19;1.80;;;1.08;;
55655;SDS011;41530;52.382;5.270;2023-03-29T08:30:46;2.15;;;1.20;;
55655;SDS011;41530;52.382;5.270;2023-03-29T08:33:13;1.88;;;1.13;;
55655;SDS011;41530;52.382;5.270;2023-03-29T08:35:40;2.00;;;1.05;;
55655;SDS011;41530;52.382;5.270;2023-03-29T08:38:06;1.42;;;1.05;;
55655;SDS011;41530;52.382;5.270;2023-03-29T08:40:33;1.20;;;0.95;;
55655;SDS011;41530;52.382;5.270;2023-03-29T08:50:56;1.90;;;1.20;;
55655;SDS011;41530;52.382;5.270;2023-03-29T08:53:38;2.22;;;0.82;;
55655;SDS011;41530;52.382;5.270;2023-03-29T08:56:11;1.05;;;0.88;;
55655;SDS011;41530;52.382;5.270;2023-03-29T08:58:44;1.48;;;1.02;;
55655;SDS011;41530;52.382;5.270;2023-03-29T09:01:13;3.70;;;1.20;;
55655;SDS011;41530;52.382;5.270;2023-03-29T09:03:42;1.95;;;1.05;;
55655;SDS011;41530;52.382;5.270;2023-03-29T09:06:13;2.15;;;1.17;;
55655;SDS011;41530;52.382;5.270;2023-03-29T09:08:44;2.92;;;1.10;;
55655;SDS011;41530;52.382;5.270;2023-03-29T09:11:19;3.13;;;1.15;;
55655;SDS011;41530;52.382;5.270;2023-03-29T09:21:43;1.80;;;1.10;;
55655;SDS011;41530;52.382;5.270;2023-03-29T09:32:41;1.70;;;0.90;;
55655;SDS011;41530;52.382;5.270;2023-03-29T09:37:57;2.47;;;0.80;;
55655;SDS011;41530;52.382;5.270;2023-03-29T09:40:37;1.42;;;0.98;;
55655;SDS011;41530;52.382;5.270;2023-03-29T09:43:11;3.30;;;1.30;;
55655;SDS011;41530;52.382;5.270;2023-03-29T09:45:40;1.52;;;1.10;;
55655;SDS011;41530;52.382;5.270;2023-03-29T09:48:11;2.20;;;1.27;;
55655;SDS011;41530;52.382;5.270;2023-03-29T09:50:41;1.98;;;1.05;;
55655;SDS011;41530;52.382;5.270;2023-03-29T09:53:13;2.40;;;1.17;;
55655;SDS011;41530;52.382;5.270;2023-03-29T09:55:41;2.08;;;1.33;;
55655;SDS011;41530;52.382;5.270;2023-03-29T09:58:11;1.75;;;1.20;;
55655;SDS011;41530;52.382;5.270;2023-03-29T10:00:39;1.25;;;1.00;;
55655;SDS011;41530;52.382;5.270;2023-03-29T10:03:07;3.75;;;1.42;;
55655;SDS011;41530;52.382;5.270;2023-03-29T10:05:36;5.97;;;1.50;;
55655;SDS011;41530;52.382;5.270;2023-03-29T10:08:10;6.80;;;0.80;;
55655;SDS011;41530;52.382;5.270;2023-03-29T10:10:45;2.97;;;1.27;;
55655;SDS011;41530;52.382;5.270;2023-03-29T10:13:15;1.55;;;1.30;;
55655;SDS011;41530;52.382;5.270;2023-03-29T10:16:04;1.38;;;1.13;;
55655;SDS011;41530;52.382;5.270;2023-03-29T10:18:39;1.20;;;1.10;;
55655;SDS011;41530;52.382;5.270;2023-03-29T10:21:08;2.17;;;0.98;;
55655;SDS011;41530;52.382;5.270;2023-03-29T10:23:38;2.47;;;1.33;;
55655;SDS011;41530;52.382;5.270;2023-03-29T10:26:06;1.30;;;0.88;;
55655;SDS011;41530;52.382;5.270;2023-03-29T10:28:40;3.17;;;1.30;;
55655;SDS011;41530;52.382;5.270;2023-03-29T10:31:06;2.80;;;1.42;;
55655;SDS011;41530;52.382;5.270;2023-03-29T10:33:43;2.05;;;1.23;;
55655;SDS011;41530;52.382;5.270;2023-03-29T10:36:21;1.25;;;1.10;;
55655;SDS011;41530;52.382;5.270;2023-03-29T10:38:49;2.10;;;1.08;;
55655;SDS011;41530;52.382;5.270;2023-03-29T10:41:18;2.10;;;1.30;;
55655;SDS011;41530;52.382;5.270;2023-03-29T10:43:47;1.60;;;1.20;;
55655;SDS011;41530;52.382;5.270;2023-03-29T10:46:25;1.23;;;1.10;;
55655;SDS011;41530;52.382;5.270;2023-03-29T10:48:55;2.20;;;1.17;;
55655;SDS011;41530;52.382;5.270;2023-03-29T10:51:24;1.92;;;1.25;;
55655;SDS011;41530;52.382;5.270;2023-03-29T10:53:56;1.55;;;1.20;;
55655;SDS011;41530;52.382;5.270;2023-03-29T10:56:38;3.42;;;1.42;;
55655;SDS011;41530;52.382;5.270;2023-03-29T11:07:26;1.90;;;1.10;;
55655;SDS011;41530;52.382;5.270;2023-03-29T11:12:49;2.83;;;1.30;;
55655;SDS011;41530;52.382;5.270;2023-03-29T11:26:19;2.65;;;1.15;;
55655;SDS011;41530;52.382;5.270;2023-03-29T11:31:38;2.00;;;1.25;;
55655;SDS011;41530;52.382;5.270;2023-03-29T11:37:21;3.35;;;1.20;;
55655;SDS011;41530;52.382;5.270;2023-03-29T11:40:15;2.40;;;1.35;;
55655;SDS011;41530;52.382;5.270;2023-03-29T11:43:19;1.90;;;1.20;;
55655;SDS011;41530;52.382;5.270;2023-03-29T11:45:58;2.42;;;1.40;;
55655;SDS011;41530;52.382;5.270;2023-03-29T11:49:05;1.50;;;1.15;;
55655;SDS011;41530;52.382;5.270;2023-03-29T11:51:51;2.53;;;1.45;;
55655;SDS011;41530;52.382;5.270;2023-03-29T11:59:50;1.90;;;1.20;;
55655;SDS011;41530;52.382;5.270;2023-03-29T12:05:12;3.03;;;1.23;;
55655;SDS011;41530;52.382;5.270;2023-03-29T12:07:51;2.20;;;1.30;;
55655;SDS011;41530;52.382;5.270;2023-03-29T12:10:22;3.88;;;1.38;;
55655;SDS011;41530;52.382;5.270;2023-03-29T12:13:09;1.52;;;1.33;;
55655;SDS011;41530;52.382;5.270;2023-03-29T12:15:54;6.32;;;1.40;;
55655;SDS011;41530;52.382;5.270;2023-03-29T12:18:27;1.48;;;1.15;;
55655;SDS011;41530;52.382;5.270;2023-03-29T12:21:00;1.67;;;1.20;;
55655;SDS011;41530;52.382;5.270;2023-03-29T12:23:32;2.60;;;1.35;;
55655;SDS011;41530;52.382;5.270;2023-03-29T12:37:00;4.28;;;1.52;;
55655;SDS011;41530;52.382;5.270;2023-03-29T12:39:52;2.55;;;1.58;;
55655;SDS011;41530;52.382;5.270;2023-03-29T12:42:20;5.68;;;1.70;;
55655;SDS011;41530;52.382;5.270;2023-03-29T12:44:49;2.70;;;1.80;;
55655;SDS011;41530;52.382;5.270;2023-03-29T12:47:23;2.88;;;1.27;;
55655;SDS011;41530;52.382;5.270;2023-03-29T12:49:53;2.10;;;1.27;;
55655;SDS011;41530;52.382;5.270;2023-03-29T12:52:26;3.03;;;1.35;;
55655;SDS011;41530;52.382;5.270;2023-03-29T12:54:56;1.73;;;1.35;;
55655;SDS011;41530;52.382;5.270;2023-03-29T12:57:25;2.03;;;1.30;;
55655;SDS011;41530;52.382;5.270;2023-03-29T12:59:54;7.80;;;1.50;;
55655;SDS011;41530;52.382;5.270;2023-03-29T13:04:52;2.83;;;1.27;;
55655;SDS011;41530;52.382;5.270;2023-03-29T13:09:52;2.63;;;1.48;;
55655;SDS011;41530;52.382;5.270;2023-03-29T13:12:27;2.47;;;1.15;;
55655;SDS011;41530;52.382;5.270;2023-03-29T13:14:59;4.68;;;1.30;;
55655;SDS011;41530;52.382;5.270;2023-03-29T13:17:50;3.35;;;1.55;;
55655;SDS011;41530;52.382;5.270;2023-03-29T13:20:34;1.75;;;1.10;;
55655;SDS011;41530;52.382;5.270;2023-03-29T13:32:16;4.28;;;1.30;;
55655;SDS011;41530;52.382;5.270;2023-03-29T13:35:02;2.90;;;1.20;;
55655;SDS011;41530;52.382;5.270;2023-03-29T13:43:47;4.68;;;1.55;;
55655;SDS011;41530;52.382;5.270;2023-03-29T13:45:49;2.88;;;1.50;;
55655;SDS011;41530;52.382;5.270;2023-03-29T13:51:17;5.50;;;1.50;;
55655;SDS011;41530;52.382;5.270;2023-03-29T13:53:50;2.03;;;1.30;;
55655;SDS011;41530;52.382;5.270;2023-03-29T13:56:24;4.22;;;1.48;;
55655;SDS011;41530;52.382;5.270;2023-03-29T13:59:08;2.65;;;1.20;;
55655;SDS011;41530;52.382;5.270;2023-03-29T14:01:42;3.28;;;1.38;;
55655;SDS011;41530;52.382;5.270;2023-03-29T14:04:17;3.20;;;1.70;;
55655;SDS011;41530;52.382;5.270;2023-03-29T14:06:53;4.32;;;1.80;;
55655;SDS011;41530;52.382;5.270;2023-03-29T14:09:26;4.30;;;1.50;;
55655;SDS011;41530;52.382;5.270;2023-03-29T14:11:59;2.58;;;1.33;;
55655;SDS011;41530;52.382;5.270;2023-03-29T14:14:27;2.78;;;1.48;;
55655;SDS011;41530;52.382;5.270;2023-03-29T14:16:59;3.78;;;1.60;;
55655;SDS011;41530;52.382;5.270;2023-03-29T14:19:31;1.92;;;1.48;;
55655;SDS011;41530;52.382;5.270;2023-03-29T14:22:01;3.20;;;1.40;;
55655;SDS011;41530;52.382;5.270;2023-03-29T14:24:34;2.25;;;1.33;;
55655;SDS011;41530;52.382;5.270;2023-03-29T14:27:04;4.05;;;1.63;;
55655;SDS011;41530;52.382;5.270;2023-03-29T14:29:35;3.13;;;1.48;;
55655;SDS011;41530;52.382;5.270;2023-03-29T14:32:09;2.17;;;1.33;;
55655;SDS011;41530;52.382;5.270;2023-03-29T14:34:41;4.50;;;1.65;;
55655;SDS011;41530;52.382;5.270;2023-03-29T14:37:09;4.38;;;1.67;;
55655;SDS011;41530;52.382;5.270;2023-03-29T14:39:37;6.40;;;1.30;;
55655;SDS011;41530;52.382;5.270;2023-03-29T14:42:16;1.88;;;1.52;;
55655;SDS011;41530;52.382;5.270;2023-03-29T14:44:48;2.78;;;2.20;;
55655;SDS011;41530;52.382;5.270;2023-03-29T14:47:28;2.35;;;1.33;;
55655;SDS011;41530;52.382;5.270;2023-03-29T14:49:56;2.08;;;1.23;;
55655;SDS011;41530;52.382;5.270;2023-03-29T14:52:29;2.13;;;1.33;;
55655;SDS011;41530;52.382;5.270;2023-03-29T14:54:57;1.73;;;1.20;;
55655;SDS011;41530;52.382;5.270;2023-03-29T14:57:30;2.38;;;1.38;;
55655;SDS011;41530;52.382;5.270;2023-03-29T15:00:03;2.28;;;1.60;;
55655;SDS011;41530;52.382;5.270;2023-03-29T15:05:30;3.92;;;1.70;;
55655;SDS011;41530;52.382;5.270;2023-03-29T15:07:59;2.10;;;1.60;;
55655;SDS011;41530;52.382;5.270;2023-03-29T15:10:26;2.08;;;1.48;;
55655;SDS011;41530;52.382;5.270;2023-03-29T15:12:58;1.60;;;1.50;;
55655;SDS011;41530;52.382;5.270;2023-03-29T15:15:29;1.85;;;1.38;;
55655;SDS011;41530;52.382;5.270;2023-03-29T15:17:58;1.70;;;1.50;;
55655;SDS011;41530;52.382;5.270;2023-03-29T15:20:27;3.63;;;1.40;;
55655;SDS011;41530;52.382;5.270;2023-03-29T15:23:07;2.58;;;1.58;;
55655;SDS011;41530;52.382;5.270;2023-03-29T15:25:53;2.13;;;1.60;;
55655;SDS011;41530;52.382;5.270;2023-03-29T15:28:29;2.95;;;1.50;;
55655;SDS011;41530;52.382;5.270;2023-03-29T15:33:36;5.10;;;1.40;;
55655;SDS011;41530;52.382;5.270;2023-03-29T15:36:04;3.60;;;1.60;;
55655;SDS011;41530;52.382;5.270;2023-03-29T15:38:34;2.42;;;1.65;;
55655;SDS011;41530;52.382;5.270;2023-03-29T15:41:10;2.80;;;1.63;;
55655;SDS011;41530;52.382;5.270;2023-03-29T15:43:39;4.20;;;1.60;;
55655;SDS011;41530;52.382;5.270;2023-03-29T15:46:06;2.35;;;1.65;;
55655;SDS011;41530;52.382;5.270;2023-03-29T15:48:33;2.20;;;1.63;;
55655;SDS011;41530;52.382;5.270;2023-03-29T15:51:00;3.78;;;1.60;;
55655;SDS011;41530;52.382;5.270;2023-03-29T15:53:32;3.33;;;1.50;;
55655;SDS011;41530;52.382;5.270;2023-03-29T15:55:59;2.05;;;1.40;;
55655;SDS011;41530;52.382;5.270;2023-03-29T15:58:28;2.80;;;1.40;;
55655;SDS011;41530;52.382;5.270;2023-03-29T16:00:57;1.75;;;1.40;;
55655;SDS011;41530;52.382;5.270;2023-03-29T16:03:37;4.00;;;1.70;;
55655;SDS011;41530;52.382;5.270;2023-03-29T16:06:10;2.42;;;1.58;;
55655;SDS011;41530;52.382;5.270;2023-03-29T16:08:37;2.92;;;1.67;;
55655;SDS011;41530;52.382;5.270;2023-03-29T16:11:04;2.60;;;1.75;;
55655;SDS011;41530;52.382;5.270;2023-03-29T16:13:31;2.85;;;1.90;;
55655;SDS011;41530;52.382;5.270;2023-03-29T16:15:58;3.67;;;1.80;;
55655;SDS011;41530;52.382;5.270;2023-03-29T16:18:25;4.20;;;1.85;;
55655;SDS011;41530;52.382;5.270;2023-03-29T16:20:52;1.98;;;1.52;;
55655;SDS011;41530;52.382;5.270;2023-03-29T16:23:19;2.10;;;1.80;;
55655;SDS011;41530;52.382;5.270;2023-03-29T16:25:46;5.38;;;1.88;;
55655;SDS011;41530;52.382;5.270;2023-03-29T16:28:12;3.17;;;1.63;;
55655;SDS011;41530;52.382;5.270;2023-03-29T16:30:39;2.10;;;1.65;;
55655;SDS011;41530;52.382;5.270;2023-03-29T16:33:06;4.15;;;1.80;;
55655;SDS011;41530;52.382;5.270;2023-03-29T16:35:37;2.97;;;2.05;;
55655;SDS011;41530;52.382;5.270;2023-03-29T16:38:05;3.50;;;1.95;;
55655;SDS011;41530;52.382;5.270;2023-03-29T16:40:33;3.67;;;2.10;;
55655;SDS011;41530;52.382;5.270;2023-03-29T16:43:01;1.90;;;1.50;;
55655;SDS011;41530;52.382;5.270;2023-03-29T16:45:28;2.97;;;1.98;;
55655;SDS011;41530;52.382;5.270;2023-03-29T16:47:54;2.40;;;1.50;;
55655;SDS011;41530;52.382;5.270;2023-03-29T16:50:22;1.80;;;1.50;;
55655;SDS011;41530;52.382;5.270;2023-03-29T16:52:49;2.38;;;1.77;;
55655;SDS011;41530;52.382;5.270;2023-03-29T16:55:17;2.60;;;1.65;;
55655;SDS011;41530;52.382;5.270;2023-03-29T16:57:45;2.70;;;1.73;;
55655;SDS011;41530;52.382;5.270;2023-03-29T17:00:13;4.22;;;1.70;;
55655;SDS011;41530;52.382;5.270;2023-03-29T17:02:41;3.15;;;1.42;;
55655;SDS011;41530;52.382;5.270;2023-03-29T17:05:09;2.63;;;1.40;;
55655;SDS011;41530;52.382;5.270;2023-03-29T17:07:38;3.92;;;1.63;;
55655;SDS011;41530;52.382;5.270;2023-03-29T17:10:06;2.60;;;1.48;;